Time;durP1;ratioP1;P1;durP2;ratioP2;P2;SDS_P1;SDS_P2;PMS_P1;PMS_P2;Temp;Humidity;BMP_temperature;BMP_pressure;BME280_temperature;BME280_humidity;BME280_pressure;Samples;Min_cycle;Max_cycle;Signal;HPM_P1;HPM_P2
2022/03/16 00:00:08;;;;;;;36.93;22.90;;;;;;;5.21;66.56;101923.66;693226;28;1247;-91
2022/03/16 00:00:32;;;;;;;36.00;23.08;;;;;;;5.18;66.05;101924.38;688030;28;913;-90
2022/03/16 00:00:53;;;;;;;36.40;22.93;;;;;;;5.18;66.07;101921.78;692984;28;1260;-91
2022/03/16 00:01:14;;;;;;;34.08;23.10;;;;;;;5.24;66.38;101928.16;693024;28;1147;-91
2022/03/16 00:01:34;;;;;;;32.88;23.33;;;;;;;5.26;66.46;101921.41;690788;28;1396;-91
2022/03/16 00:01:55;;;;;;;33.08;23.83;;;;;;;5.25;66.47;101922.19;690572;28;1173;-91
2022/03/16 00:02:19;;;;;;;33.50;23.80;;;;;;;5.23;66.51;101913.44;690697;28;1077;-91
2022/03/16 00:02:40;;;;;;;34.50;23.67;;;;;;;5.31;66.20;101931.28;692241;28;1526;-91
2022/03/16 00:03:01;;;;;;;32.35;22.50;;;;;;;5.27;65.82;101923.22;693211;28;1272;-90
2022/03/16 00:03:21;;;;;;;34.23;23.43;;;;;;;5.20;66.21;101915.03;690850;28;1185;-90
2022/03/16 00:03:42;;;;;;;32.83;22.48;;;;;;;5.30;66.06;101928.59;690522;28;1171;-91
2022/03/16 00:04:02;;;;;;;33.97;22.73;;;;;;;5.19;65.92;101920.09;690357;28;1358;-91
2022/03/16 00:04:23;;;;;;;32.60;21.80;;;;;;;5.28;65.94;101936.25;690610;28;1233;-91
2022/03/16 00:04:43;;;;;;;33.47;22.48;;;;;;;5.19;66.23;101926.19;690524;28;1170;-91
2022/03/16 00:05:04;;;;;;;34.27;23.20;;;;;;;5.15;65.64;101918.09;693401;28;1110;-91
2022/03/16 00:05:26;;;;;;;36.50;23.42;;;;;;;5.19;65.58;101931.34;695928;28;1297;-90
2022/03/16 00:05:47;;;;;;;39.67;23.73;;;;;;;5.12;65.89;101918.78;690614;28;1630;-90
2022/03/16 00:06:07;;;;;;;40.70;24.00;;;;;;;5.12;65.50;101923.03;690536;28;1173;-91
2022/03/16 00:06:28;;;;;;;37.50;24.13;;;;;;;5.10;65.99;101922.97;690236;28;1244;-91
2022/03/16 00:06:48;;;;;;;33.53;23.85;;;;;;;5.05;66.12;101916.56;695743;28;1226;-91
2022/03/16 00:07:09;;;;;;;31.85;23.20;;;;;;;5.05;65.89;101920.03;694298;28;1586;-90
2022/03/16 00:07:29;;;;;;;32.07;22.97;;;;;;;5.10;65.92;101927.22;693093;28;1275;-91
2022/03/16 00:07:50;;;;;;;32.97;22.58;;;;;;;4.97;65.90;101913.44;692610;28;1577;-90
2022/03/16 00:08:12;;;;;;;34.33;22.47;;;;;;;4.97;65.69;101910.84;695959;28;1344;-90
2022/03/16 00:08:32;;;;;;;33.78;21.95;;;;;;;4.95;65.71;101915.00;693114;28;1270;-90
2022/03/16 00:08:53;;;;;;;35.37;21.60;;;;;;;4.91;65.73;101911.31;692928;28;1303;-91
2022/03/16 00:09:14;;;;;;;36.60;21.88;;;;;;;4.98;65.90;101935.03;690393;28;1785;-90
2022/03/16 00:09:34;;;;;;;37.38;22.50;;;;;;;4.94;65.55;101936.50;690023;28;1164;-91
2022/03/16 00:09:55;;;;;;;36.47;23.27;;;;;;;4.87;65.89;101921.34;690360;28;1186;-90
2022/03/16 00:10:15;;;;;;;34.50;22.65;;;;;;;4.84;66.02;101915.97;693132;28;1303;-91
2022/03/16 00:10:36;;;;;;;34.10;22.00;;;;;;;4.91;65.63;101926.84;691500;28;1465;-90
2022/03/16 00:10:56;;;;;;;31.80;21.10;;;;;;;4.89;65.50;101930.09;690344;28;1157;-91
2022/03/16 00:11:17;;;;;;;33.03;20.88;;;;;;;4.90;65.90;101930.22;693313;28;976;-90
2022/03/16 00:11:38;;;;;;;32.60;20.53;;;;;;;4.89;65.74;101938.78;692949;28;1444;-89
2022/03/16 00:11:58;;;;;;;34.97;20.70;;;;;;;4.80;66.05;101925.19;690560;28;1088;-91
2022/03/16 00:12:19;;;;;;;34.28;21.55;;;;;;;4.83;65.67;101928.00;693162;28;1164;-91
2022/03/16 00:12:41;;;;;;;33.85;21.83;;;;;;;4.80;65.82;101925.19;687609;28;1331;-90
2022/03/16 00:13:02;;;;;;;32.15;22.73;;;;;;;4.82;65.48;101928.78;687693;28;1001;-90
2022/03/16 00:13:22;;;;;;;32.77;23.27;;;;;;;4.87;65.63;101942.94;693322;28;1149;-90
2022/03/16 00:13:43;;;;;;;35.03;23.67;;;;;;;4.77;65.73;101930.13;693076;28;1745;-91
2022/03/16 00:14:03;;;;;;;36.65;24.05;;;;;;;4.82;65.84;101939.13;695642;28;1242;-90
2022/03/16 00:14:24;;;;;;;38.00;24.00;;;;;;;4.72;65.75;101922.06;693422;28;759;-91
2022/03/16 00:14:45;;;;;;;37.53;24.63;;;;;;;4.74;65.98;101924.75;690555;28;1717;-91
2022/03/16 00:15:06;;;;;;;39.30;24.40;;;;;;;4.68;65.88;101924.31;695826;28;1388;-91
2022/03/16 00:15:27;;;;;;;39.33;24.83;;;;;;;4.69;65.70;101926.13;691848;28;1379;-90
2022/03/16 00:15:47;;;;;;;41.30;24.30;;;;;;;4.72;65.98;101932.41;693140;28;1262;-91
2022/03/16 00:16:08;;;;;;;41.95;25.48;;;;;;;4.70;65.80;101928.81;695929;28;1209;-90
2022/03/16 00:16:28;;;;;;;46.47;26.20;;;;;;;4.69;65.81;101927.03;689193;28;1140;-90
2022/03/16 00:16:49;;;;;;;48.63;27.17;;;;;;;4.69;65.98;101926.13;692353;28;1906;-90
2022/03/16 00:17:10;;;;;;;45.53;26.40;;;;;;;4.64;66.20;101921.53;691740;28;1168;-90
2022/03/16 00:17:31;;;;;;;42.42;26.45;;;;;;;4.71;65.67;101934.91;690553;28;1567;-90
2022/03/16 00:17:52;;;;;;;41.38;26.95;;;;;;;4.69;65.97;101934.78;690778;28;1140;-91
2022/03/16 00:18:13;;;;;;;42.63;27.30;;;;;;;4.67;66.00;101933.78;692708;28;1164;-91
2022/03/16 00:18:33;;;;;;;44.35;27.23;;;;;;;4.71;66.20;101932.31;693176;28;1156;-91
2022/03/16 00:18:54;;;;;;;48.10;28.10;;;;;;;4.58;66.07;101915.91;692456;28;1213;-90
2022/03/16 00:19:14;;;;;;;47.10;27.80;;;;;;;4.69;65.77;101941.63;693120;28;1145;-91
2022/03/16 00:19:36;;;;;;;45.80;27.83;;;;;;;4.69;65.97;101941.63;689787;28;1484;-90
2022/03/16 00:19:56;;;;;;;43.00;26.63;;;;;;;4.59;66.18;101925.47;687649;28;1263;-91
2022/03/16 00:20:17;;;;;;;43.67;26.05;;;;;;;4.60;65.64;101929.84;693280;28;986;-90
2022/03/16 00:20:37;;;;;;;41.43;25.10;;;;;;;4.62;66.03;101930.88;695667;28;1519;-90
2022/03/16 00:20:59;;;;;;;40.25;24.85;;;;;;;4.65;66.25;101930.16;690357;28;1195;-89
2022/03/16 00:21:19;;;;;;;38.28;24.27;;;;;;;4.61;66.25;101929.06;692879;28;1234;-90
2022/03/16 00:21:40;;;;;;;37.05;23.75;;;;;;;4.59;66.07;101928.06;691008;28;1217;-90
2022/03/16 00:22:04;;;;;;;37.60;23.10;;;;;;;4.68;65.94;101937.25;690362;28;1354;-90
2022/03/16 00:22:24;;;;;;;36.35;22.30;;;;;;;4.64;66.21;101934.47;693206;28;1454;-90
2022/03/16 00:22:45;;;;;;;36.67;22.40;;;;;;;4.61;66.52;101926.47;690302;28;1176;-90
2022/03/16 00:23:05;;;;;;;35.40;22.35;;;;;;;4.63;66.58;101927.50;693018;28;1040;-90
2022/03/16 00:23:26;;;;;;;34.40;22.55;;;;;;;4.70;66.64;101933.06;690429;28;1264;-90
2022/03/16 00:23:48;;;;;;;33.37;22.50;;;;;;;4.71;66.48;101929.72;690340;28;1189;-91
2022/03/16 00:24:09;;;;;;;34.33;23.20;;;;;;;4.78;66.46;101940.59;690325;28;1700;-90
2022/03/16 00:24:30;;;;;;;36.90;23.53;;;;;;;4.74;66.36;101929.94;696050;28;755;-89
2022/03/16 00:24:51;;;;;;;40.33;23.63;;;;;;;4.78;66.62;101935.44;696267;28;1410;-90
2022/03/16 00:25:11;;;;;;;39.10;23.70;;;;;;;4.79;66.45;101933.75;690562;28;1666;-91
2022/03/16 00:25:32;;;;;;;37.00;23.25;;;;;;;4.85;66.75;101938.47;690346;28;1170;-90
2022/03/16 00:25:52;;;;;;;34.93;22.83;;;;;;;4.84;66.68;101934.06;690201;28;1285;-91
2022/03/16 00:26:13;;;;;;;34.42;22.42;;;;;;;4.82;66.17;101930.47;690290;28;1208;-90
2022/03/16 00:26:34;;;;;;;35.85;22.77;;;;;;;4.88;66.32;101939.56;690197;28;1230;-90
2022/03/16 00:26:55;;;;;;;37.35;23.40;;;;;;;4.94;66.62;101944.28;689055;28;1304;-91
2022/03/16 00:27:16;;;;;;;38.75;24.17;;;;;;;4.82;66.39;101923.63;690405;28;1288;-91
2022/03/16 00:27:38;;;;;;;41.25;23.75;;;;;;;4.86;65.97;101933.41;692854;28;1395;-91
2022/03/16 00:28:00;;;;;;;40.47;22.70;;;;;;;4.93;65.97;101948.53;695933;28;1239;-90
2022/03/16 00:28:21;;;;;;;41.33;22.88;;;;;;;4.83;65.97;101930.56;695886;28;1434;-90
2022/03/16 00:28:41;;;;;;;35.10;23.17;;;;;;;4.84;65.90;101927.19;693142;28;1415;-91
2022/03/16 00:29:02;;;;;;;35.45;23.85;;;;;;;4.86;66.00;101940.25;693128;28;1076;-90
2022/03/16 00:29:23;;;;;;;33.40;23.02;;;;;;;4.80;66.28;101930.38;693356;28;842;-90
2022/03/16 00:29:45;;;;;;;32.55;22.15;;;;;;;4.86;66.10;101946.34;695262;28;1582;-90
2022/03/16 00:30:08;;;;;;;31.85;21.60;;;;;;;4.79;65.75;101929.47;693062;28;1308;-90
2022/03/16 00:30:29;;;;;;;32.28;22.23;;;;;;;4.80;65.62;101940.72;693103;28;1571;-88
2022/03/16 00:31:02;;;;;;;31.40;22.02;;;;;;;4.78;65.63;101937.09;692919;28;1293;-90
2022/03/16 00:31:22;;;;;;;33.58;22.95;;;;;;;4.71;65.71;101924.56;692716;28;1603;-90
2022/03/16 00:31:43;;;;;;;35.17;23.20;;;;;;;4.71;65.85;101932.31;699641;28;1254;-91
2022/03/16 00:32:04;;;;;;;36.57;23.83;;;;;;;4.74;65.83;101929.94;698456;28;1245;-90
2022/03/16 00:32:25;;;;;;;36.40;23.35;;;;;;;4.73;65.95;101928.16;695887;28;1258;-91
2022/03/16 00:32:45;;;;;;;35.30;23.17;;;;;;;4.72;65.67;101931.53;694092;28;1272;-90
2022/03/16 00:33:06;;;;;;;35.00;23.43;;;;;;;4.68;65.96;101926.91;688043;28;1416;-91
2022/03/16 00:33:26;;;;;;;35.20;23.60;;;;;;;4.69;66.01;101927.03;693192;28;1478;-90
2022/03/16 00:33:47;;;;;;;37.20;24.08;;;;;;;4.74;65.88;101936.03;695954;28;1584;-90
2022/03/16 00:34:07;;;;;;;38.27;24.13;;;;;;;4.65;65.87;101925.91;692978;28;1246;-91
2022/03/16 00:34:28;;;;;;;42.65;25.58;;;;;;;4.63;66.04;101919.75;693154;28;1242;-91
2022/03/16 00:34:48;;;;;;;40.97;25.30;;;;;;;4.70;65.67;101930.50;692835;28;1670;-89
2022/03/16 00:35:09;;;;;;;43.00;25.70;;;;;;;4.68;65.78;101929.50;690401;28;1256;-90
2022/03/16 00:35:30;;;;;;;41.80;25.83;;;;;;;4.60;65.65;101922.09;687333;28;1217;-90
2022/03/16 00:35:50;;;;;;;43.45;26.17;;;;;;;4.63;65.48;101936.94;689894;28;1159;-90
2022/03/16 00:36:11;;;;;;;44.03;26.90;;;;;;;4.57;65.63;101921.88;690433;28;1052;-91
2022/03/16 00:36:32;;;;;;;44.20;27.27;;;;;;;4.57;65.88;101927.06;695854;28;1319;-90
2022/03/16 00:36:52;;;;;;;45.95;28.13;;;;;;;4.58;65.70;101938.28;698457;28;1975;-91
2022/03/16 00:37:13;;;;;;;44.53;28.03;;;;;;;4.53;65.68;101927.63;698595;28;1322;-91
2022/03/16 00:37:33;;;;;;;43.97;27.73;;;;;;;4.50;65.78;101924.81;693087;28;1497;-90
2022/03/16 00:37:54;;;;;;;43.63;27.05;;;;;;;4.45;65.61;101926.16;695688;28;1233;-91
2022/03/16 00:38:16;;;;;;;45.73;27.70;;;;;;;4.45;65.57;101926.16;693052;28;1240;-91
2022/03/16 00:38:37;;;;;;;46.33;29.23;;;;;;;4.42;65.63;101920.78;693387;28;1395;-91
2022/03/16 00:38:57;;;;;;;47.67;30.53;;;;;;;4.46;65.73;101933.13;693170;28;1153;-90
2022/03/16 00:39:18;;;;;;;45.90;30.77;;;;;;;4.51;65.50;101943.03;692912;28;1204;-91
2022/03/16 00:39:38;;;;;;;47.90;31.45;;;;;;;4.47;65.84;101940.13;692230;28;1353;-91
2022/03/16 00:39:59;;;;;;;48.97;31.23;;;;;;;4.35;65.53;101928.09;693018;28;1282;-90
2022/03/16 00:40:20;;;;;;;52.17;31.92;;;;;;;4.42;65.61;101932.00;697721;28;1383;-91
2022/03/16 00:40:41;;;;;;;52.03;31.70;;;;;;;4.49;65.61;101938.53;696303;28;1247;-90
2022/03/16 00:41:02;;;;;;;53.70;32.40;;;;;;;4.48;65.76;101929.88;693186;28;1009;-91
2022/03/16 00:41:24;;;;;;;52.78;31.60;;;;;;;4.48;65.31;101931.56;687904;28;850;-89
2022/03/16 00:41:44;;;;;;;52.85;31.17;;;;;;;4.44;65.71;101922.69;692916;28;1048;-90
2022/03/16 00:42:05;;;;;;;51.90;30.90;;;;;;;4.44;65.34;101925.28;693181;28;1412;-91
2022/03/16 00:42:26;;;;;;;49.30;30.92;;;;;;;4.55;65.42;101944.16;690340;28;1069;-91
2022/03/16 00:42:46;;;;;;;50.50;30.40;;;;;;;4.41;65.43;101924.16;690320;28;1186;-90
2022/03/16 00:43:07;;;;;;;52.20;30.58;;;;;;;4.42;65.43;101938.88;693121;28;1270;-90
2022/03/16 00:43:28;;;;;;;52.38;30.40;;;;;;;4.36;65.32;101936.75;693105;28;1794;-90
2022/03/16 00:43:49;;;;;;;50.08;30.15;;;;;;;4.29;65.28;101925.06;696699;28;1051;-89
2022/03/16 00:44:09;;;;;;;48.10;28.80;;;;;;;4.28;65.58;101928.44;695722;28;1091;-90
2022/03/16 00:44:34;;;;;;;46.23;28.00;;;;;;;4.24;65.58;101927.31;692991;28;1425;-90
2022/03/16 00:44:58;;;;;;;45.90;27.23;;;;;;;4.28;65.50;101936.19;687867;28;1404;-90
2022/03/16 00:45:19;;;;;;;46.88;27.20;;;;;;;4.20;65.53;101921.78;690273;28;1058;-89
2022/03/16 00:45:40;;;;;;;47.47;27.27;;;;;;;4.19;65.58;101927.75;692396;28;1170;-90
2022/03/16 00:46:01;;;;;;;46.40;27.70;;;;;;;4.18;65.91;101924.25;687639;28;1143;-90
2022/03/16 00:46:21;;;;;;;47.10;28.50;;;;;;;4.18;66.06;101925.94;687698;28;1227;-91
2022/03/16 00:46:42;;;;;;;46.77;28.90;;;;;;;4.24;65.79;101931.59;688575;28;1323;-90
2022/03/16 00:47:04;;;;;;;46.55;28.25;;;;;;;4.24;66.00;101937.66;687664;28;1009;-91
2022/03/16 00:47:24;;;;;;;44.67;26.85;;;;;;;4.20;65.65;101932.13;692663;28;1398;-90
2022/03/16 00:47:45;;;;;;;44.25;26.33;;;;;;;4.19;65.65;101923.50;696733;28;1596;-90
2022/03/16 00:48:07;;;;;;;45.70;27.20;;;;;;;4.20;66.07;101934.69;692913;28;1287;-90
2022/03/16 00:48:28;;;;;;;46.28;28.02;;;;;;;4.24;65.94;101942.81;687786;28;1228;-90
2022/03/16 00:48:49;;;;;;;47.90;29.00;;;;;;;4.21;65.87;101933.91;695690;28;1620;-90
2022/03/16 00:49:09;;;;;;;44.70;28.52;;;;;;;4.30;65.95;101955.28;693090;28;1271;-90
2022/03/16 00:49:30;;;;;;;42.77;27.33;;;;;;;4.18;66.07;101932.00;692736;28;1288;-90
2022/03/16 00:49:52;;;;;;;40.78;26.27;;;;;;;4.17;65.99;101929.31;692843;28;1305;-90
2022/03/16 00:50:12;;;;;;;43.45;26.75;;;;;;;4.21;65.76;101941.66;692926;28;1220;-91
2022/03/16 00:50:34;;;;;;;46.37;27.90;;;;;;;4.29;66.00;101956.06;692932;28;1452;-90
2022/03/16 00:50:54;;;;;;;47.03;28.60;;;;;;;4.17;66.22;101934.50;690367;28;1270;-90
2022/03/16 00:51:17;;;;;;;46.97;28.70;;;;;;;4.14;66.10;101924.81;692338;28;986;-91
2022/03/16 00:51:38;;;;;;;46.10;29.00;;;;;;;4.20;66.03;101927.88;690402;28;1009;-90
2022/03/16 00:51:59;;;;;;;49.35;29.42;;;;;;;4.15;65.88;101925.69;694966;28;1393;-91
2022/03/16 00:52:20;;;;;;;47.55;28.27;;;;;;;4.21;66.20;101932.25;693077;28;1248;-90
2022/03/16 00:52:40;;;;;;;45.07;27.83;;;;;;;4.14;65.73;101924.81;690221;28;1128;-90
2022/03/16 00:53:02;;;;;;;41.72;27.08;;;;;;;4.17;66.16;101929.31;687559;28;1080;-90
2022/03/16 00:53:22;;;;;;;43.55;28.42;;;;;;;4.24;66.02;101929.03;692897;28;1268;-90
2022/03/16 00:53:45;;;;;;;43.75;28.38;;;;;;;4.16;65.73;101918.06;688781;28;1207;-91
2022/03/16 00:54:06;;;;;;;42.15;27.15;;;;;;;4.21;65.99;101936.50;687507;28;1316;-90
2022/03/16 00:54:30;;;;;;;39.85;25.77;;;;;;;4.14;65.82;101914.50;690481;28;1661;-90
2022/03/16 00:54:51;;;;;;;38.50;24.56;;;;;;;4.20;65.90;101925.28;698535;28;1349;-90
2022/03/16 00:55:12;;;;;;;39.05;24.27;;;;;;;4.22;65.94;101930.56;695873;28;1294;-90
2022/03/16 00:55:33;;;;;;;38.43;24.37;;;;;;;4.19;66.03;101928.66;693232;28;1165;-90
2022/03/16 00:55:53;;;;;;;37.85;24.23;;;;;;;4.21;66.26;101931.31;690482;28;1391;-90
2022/03/16 00:56:16;;;;;;;34.90;23.70;;;;;;;4.13;65.58;101919.53;693107;28;1419;-90
2022/03/16 00:56:38;;;;;;;35.50;23.80;;;;;;;4.11;66.13;101922.03;693126;28;1276;-90
2022/03/16 00:56:58;;;;;;;36.00;24.27;;;;;;;4.17;66.01;101924.16;687615;28;1906;-89
2022/03/16 00:57:19;;;;;;;38.05;24.73;;;;;;;4.18;65.85;101925.94;693028;28;1322;-91
2022/03/16 00:57:39;;;;;;;35.93;23.97;;;;;;;4.17;65.88;101916.41;693678;28;1555;-89
2022/03/16 00:58:02;;;;;;;36.30;24.63;;;;;;;4.16;65.64;101917.19;696113;28;1183;-90
2022/03/16 00:58:24;;;;;;;34.67;24.70;;;;;;;4.17;65.91;101919.00;693146;28;1272;-90
2022/03/16 00:58:44;;;;;;;38.72;25.30;;;;;;;4.24;66.00;101931.59;693984;28;1597;-89
2022/03/16 00:59:05;;;;;;;38.27;24.73;;;;;;;4.24;65.95;101913.50;690570;28;976;-90
2022/03/16 00:59:26;;;;;;;40.83;25.58;;;;;;;4.26;65.77;101922.25;692453;28;790;-91
2022/03/16 00:59:47;;;;;;;35.95;24.83;;;;;;;4.15;65.80;101911.13;694517;28;1414;-90
2022/03/16 01:00:10;;;;;;;38.10;25.30;;;;;;;4.24;65.64;101932.47;695793;28;1246;-90
2022/03/16 01:00:30;;;;;;;39.85;24.60;;;;;;;4.24;65.87;101936.78;692606;28;1263;-89
2022/03/16 01:00:51;;;;;;;42.65;24.75;;;;;;;4.21;65.37;101915.81;693336;28;1767;-90
2022/03/16 01:01:12;;;;;;;39.53;23.50;;;;;;;4.20;65.66;101924.38;692904;28;1310;-90
2022/03/16 01:01:32;;;;;;;37.60;23.50;;;;;;;4.15;65.67;101917.94;687718;28;1258;-91
2022/03/16 01:01:53;;;;;;;34.08;22.55;;;;;;;4.21;65.55;101927.06;693138;28;1843;-90
2022/03/16 01:02:14;;;;;;;33.92;22.50;;;;;;;4.16;65.58;101923.25;692903;28;1100;-90
2022/03/16 01:02:36;;;;;;;30.80;21.55;;;;;;;4.16;65.81;101918.06;693059;28;1239;-90
2022/03/16 01:02:57;;;;;;;29.63;21.30;;;;;;;4.23;65.71;101934.97;693140;28;1142;-90
2022/03/16 01:03:18;;;;;;;30.73;20.73;;;;;;;4.13;65.57;101914.38;695964;28;1257;-91
2022/03/16 01:03:41;;;;;;;31.38;20.52;;;;;;;4.15;65.51;101916.28;691206;28;1181;-90
2022/03/16 01:04:01;;;;;;;31.38;20.30;;;;;;;4.19;65.39;101918.31;693083;28;1247;-90
2022/03/16 01:04:23;;;;;;;28.67;19.92;;;;;;;4.27;65.50;101929.22;692896;28;1494;-90
2022/03/16 01:04:43;;;;;;;28.13;19.42;;;;;;;4.13;65.59;101907.53;690520;28;1236;-90
2022/03/16 01:05:05;;;;;;;27.58;19.50;;;;;;;4.20;65.46;101934.69;690442;28;1248;-90
2022/03/16 01:05:25;;;;;;;30.33;20.20;;;;;;;4.19;65.58;101926.06;692729;28;1229;-90
2022/03/16 01:05:47;;;;;;;36.70;21.50;;;;;;;4.14;65.43;101918.75;692014;28;1394;-91
2022/03/16 01:06:20;;;;;;;36.53;21.50;;;;;;;4.14;65.69;101930.00;690328;28;1206;-90
2022/03/16 01:06:40;;;;;;;34.40;20.90;;;;;;;4.22;65.68;101935.72;690348;28;1268;-90
2022/03/16 01:07:01;;;;;;;31.57;20.63;;;;;;;4.12;65.65;101926.41;690419;28;1348;-90
2022/03/16 01:07:22;;;;;;;33.38;21.15;;;;;;;4.11;65.77;101920.31;690367;28;1189;-89
2022/03/16 01:07:42;;;;;;;30.80;20.70;;;;;;;4.15;65.75;101928.28;696018;28;1150;-90
2022/03/16 01:08:03;;;;;;;33.63;21.00;;;;;;;4.11;65.64;101920.31;693134;28;1132;-91
2022/03/16 01:08:24;;;;;;;32.58;20.70;;;;;;;4.13;65.71;101925.63;693250;28;1278;-91
2022/03/16 01:08:45;;;;;;;33.33;21.02;;;;;;;4.08;65.70;101920.13;698398;28;1117;-91
2022/03/16 01:09:05;;;;;;;30.73;20.80;;;;;;;4.15;65.87;101926.63;695768;28;1199;-90
2022/03/16 01:09:26;;;;;;;30.08;20.67;;;;;;;4.07;65.83;101913.16;693193;28;1171;-90
2022/03/16 01:09:47;;;;;;;30.77;20.63;;;;;;;4.07;65.74;101918.31;691661;28;1182;-90
2022/03/16 01:10:08;;;;;;;30.60;20.40;;;;;;;4.14;65.40;101930.00;693292;28;1052;-90
2022/03/16 01:10:29;;;;;;;32.03;21.13;;;;;;;4.15;65.63;101931.78;692994;28;1300;-90
2022/03/16 01:10:49;;;;;;;30.17;21.07;;;;;;;4.15;65.85;101931.78;689539;28;1073;-90
2022/03/16 01:11:14;;;;;;;29.45;20.58;;;;;;;4.20;65.73;101932.13;690196;28;1060;-89
2022/03/16 01:11:34;;;;;;;27.35;20.02;;;;;;;4.18;65.92;101938.88;690051;28;1358;-90
2022/03/16 01:11:55;;;;;;;29.97;19.93;;;;;;;4.17;65.42;101926.75;695974;28;1392;-90
2022/03/16 01:12:16;;;;;;;30.70;20.42;;;;;;;4.14;65.76;101923.91;691531;28;1092;-89
2022/03/16 01:12:36;;;;;;;32.85;20.00;;;;;;;4.10;65.49;101913.38;690494;28;1386;-91
2022/03/16 01:12:57;;;;;;;30.63;19.80;;;;;;;4.11;65.42;101917.75;687632;28;1178;-89
2022/03/16 01:13:18;;;;;;;32.60;19.90;;;;;;;4.15;65.37;101920.53;689633;28;1258;-90
2022/03/16 01:13:40;;;;;;;31.77;20.60;;;;;;;4.11;65.58;101917.75;693614;28;1106;-91
2022/03/16 01:14:02;;;;;;;31.10;19.52;;;;;;;4.14;65.71;101930.00;690238;28;1362;-90
2022/03/16 01:14:22;;;;;;;28.03;19.17;;;;;;;4.07;65.75;101927.75;695759;28;1362;-90
2022/03/16 01:14:43;;;;;;;28.15;19.25;;;;;;;4.09;65.25;101927.06;692957;28;1562;-90
2022/03/16 01:15:05;;;;;;;30.30;20.02;;;;;;;4.17;65.68;101939.66;693008;28;1111;-90
2022/03/16 01:15:25;;;;;;;31.45;20.13;;;;;;;4.08;65.52;101935.63;693223;28;1287;-90
2022/03/16 01:15:46;;;;;;;31.27;20.17;;;;;;;4.11;65.99;101935.81;692977;28;1356;-90
2022/03/16 01:16:07;;;;;;;29.98;19.92;;;;;;;4.09;65.95;101932.25;695594;28;1312;-90
2022/03/16 01:16:28;;;;;;;30.25;20.00;;;;;;;4.05;65.60;101927.63;690321;28;1268;-89
2022/03/16 01:16:48;;;;;;;29.42;19.75;;;;;;;4.15;66.03;101941.22;695677;28;1922;-90
2022/03/16 01:17:09;;;;;;;29.60;20.30;;;;;;;4.15;66.05;101936.03;690258;28;1152;-90
2022/03/16 01:17:29;;;;;;;28.43;20.17;;;;;;;4.23;65.83;101940.16;687866;28;815;-89
2022/03/16 01:17:51;;;;;;;29.02;19.95;;;;;;;4.18;65.69;101931.13;690215;28;1857;-90
2022/03/16 01:18:12;;;;;;;28.15;19.67;;;;;;;4.28;65.62;101948.22;687691;28;1359;-90
2022/03/16 01:18:33;;;;;;;30.00;20.65;;;;;;;4.35;65.90;101946.19;687756;28;1235;-90
2022/03/16 01:18:53;;;;;;;28.73;20.50;;;;;;;4.22;65.57;101926.31;690236;28;1277;-90
2022/03/16 01:19:14;;;;;;;30.38;20.90;;;;;;;4.28;66.01;101943.94;694635;28;1707;-90
2022/03/16 01:19:35;;;;;;;30.73;20.83;;;;;;;4.28;66.12;101943.94;692624;28;1230;-90
2022/03/16 01:20:21;;;;;;;32.45;21.10;;;;;;;4.38;65.84;101951.56;690194;28;1453;-90
2022/03/16 01:20:42;;;;;;;32.03;20.20;;;;;;;4.33;65.99;101939.09;694019;28;1149;-90
2022/03/16 01:21:07;;;;;;;31.65;20.92;;;;;;;4.31;65.87;101933.84;698442;28;1321;-91
2022/03/16 01:21:28;;;;;;;32.10;20.45;;;;;;;4.35;65.68;101938.44;693138;28;1252;-90
2022/03/16 01:21:49;;;;;;;31.75;20.00;;;;;;;4.31;65.98;101933.84;690379;28;1473;-90
2022/03/16 01:22:09;;;;;;;31.92;19.52;;;;;;;4.28;65.78;101923.25;695685;28;1164;-90
2022/03/16 01:22:31;;;;;;;31.35;19.25;;;;;;;4.30;65.73;101937.19;690531;28;796;-91
2022/03/16 01:22:52;;;;;;;32.63;20.20;;;;;;;4.32;65.74;101934.72;693134;28;1140;-90
2022/03/16 01:23:12;;;;;;;31.43;20.23;;;;;;;4.31;65.68;101932.94;690315;28;1181;-90
2022/03/16 01:23:35;;;;;;;31.20;20.80;;;;;;;4.31;65.76;101936.44;693102;28;1495;-90
2022/03/16 01:23:55;;;;;;;29.60;20.70;;;;;;;4.30;65.52;101937.19;693143;28;1378;-90
2022/03/16 01:24:16;;;;;;;28.80;20.50;;;;;;;4.28;65.41;101932.72;688091;28;1050;-89
2022/03/16 01:24:37;;;;;;;28.85;20.10;;;;;;;4.23;65.42;101924.63;690810;28;1587;-90
2022/03/16 01:24:58;;;;;;;30.47;20.07;;;;;;;4.31;65.41;101946.78;693078;28;1475;-90
2022/03/16 01:25:18;;;;;;;34.92;19.95;;;;;;;4.20;65.68;101924.38;690323;28;1396;-90
2022/03/16 01:25:39;;;;;;;32.40;19.53;;;;;;;4.21;65.51;101934.81;690907;28;1280;-90
2022/03/16 01:26:00;;;;;;;32.53;19.60;;;;;;;4.15;65.93;101916.28;696009;28;1015;-90
2022/03/16 01:26:20;;;;;;;32.88;20.10;;;;;;;4.19;65.49;101932.91;692665;28;1228;-90
2022/03/16 01:26:41;;;;;;;35.27;20.93;;;;;;;4.21;65.15;101940.00;694315;28;1779;-90
2022/03/16 01:27:02;;;;;;;31.20;20.60;;;;;;;4.15;65.51;101931.78;690455;28;972;-90
2022/03/16 01:27:25;;;;;;;29.50;20.60;;;;;;;4.13;65.22;101923.03;687691;28;1252;-91
2022/03/16 01:27:45;;;;;;;31.20;20.30;;;;;;;4.11;65.50;101922.03;692045;28;1552;-88
2022/03/16 01:28:06;;;;;;;30.17;19.90;;;;;;;4.14;65.47;101931.66;690355;28;950;-90
2022/03/16 01:28:26;;;;;;;28.02;19.02;;;;;;;4.13;65.57;101927.28;692817;28;1156;-90
2022/03/16 01:28:49;;;;;;;26.42;19.02;;;;;;;4.09;65.51;101923.56;691985;28;1527;-90
2022/03/16 01:29:09;;;;;;;28.70;19.90;;;;;;;4.15;65.25;101936.03;686858;28;1399;-90
2022/03/16 01:29:30;;;;;;;30.70;20.23;;;;;;;4.09;65.67;101932.25;691177;28;1509;-90
2022/03/16 01:29:50;;;;;;;29.65;20.17;;;;;;;4.03;65.26;101916.28;692682;28;1523;-90
2022/03/16 01:30:32;;;;;;;28.93;19.93;;;;;;;4.13;65.30;101940.22;693609;28;1450;-90
2022/03/16 01:30:53;;;;;;;29.58;19.98;;;;;;;4.06;65.65;101937.16;689932;28;1453;-90
2022/03/16 01:31:14;;;;;;;29.57;19.70;;;;;;;4.05;65.79;101935.38;692864;28;1448;-90
2022/03/16 01:31:34;;;;;;;28.23;19.40;;;;;;;4.00;65.41;101931.56;693012;28;1556;-90
2022/03/16 01:31:55;;;;;;;26.75;18.80;;;;;;;3.98;65.08;101925.38;693124;28;980;-90
2022/03/16 01:32:18;;;;;;;28.08;18.83;;;;;;;3.93;65.51;101919.00;695865;28;937;-90
2022/03/16 01:32:40;;;;;;;28.40;19.25;;;;;;;3.99;65.32;101939.19;690488;28;1701;-90
2022/03/16 01:33:01;;;;;;;29.05;19.55;;;;;;;3.91;65.47;101921.44;689904;28;1816;-90
2022/03/16 01:33:21;;;;;;;27.30;19.47;;;;;;;3.88;65.16;101917.75;691828;28;1313;-90
2022/03/16 01:33:42;;;;;;;28.40;19.37;;;;;;;3.90;65.47;101923.91;694099;28;1514;-90
2022/03/16 01:34:03;;;;;;;31.92;19.92;;;;;;;3.96;65.34;101935.63;692984;28;1125;-89
2022/03/16 01:34:24;;;;;;;33.72;20.77;;;;;;;3.94;65.76;101934.56;693177;28;771;-90
2022/03/16 01:34:45;;;;;;;33.45;20.95;;;;;;;3.87;65.44;101918.53;690334;28;1012;-90
2022/03/16 01:35:08;;;;;;;30.27;20.48;;;;;;;3.99;65.53;101940.13;692683;28;1394;-90
2022/03/16 01:35:29;;;;;;;28.27;19.83;;;;;;;3.96;65.46;101939.88;693131;28;1396;-90
2022/03/16 01:35:49;;;;;;;27.88;19.25;;;;;;;3.86;65.63;101927.06;692406;28;1333;-90
2022/03/16 01:36:10;;;;;;;28.63;19.30;;;;;;;3.85;65.75;101917.53;695815;28;1038;-90
2022/03/16 01:36:31;;;;;;;29.02;18.95;;;;;;;3.86;65.47;101922.78;691640;28;1260;-89
2022/03/16 01:36:52;;;;;;;29.08;19.00;;;;;;;3.94;65.56;101931.13;690569;28;1910;-90
2022/03/16 01:37:13;;;;;;;34.58;19.25;;;;;;;3.91;65.65;101930.88;690370;28;1376;-90
2022/03/16 01:37:43;;;;;;;35.70;19.65;;;;;;;3.88;65.77;101921.22;690402;28;1388;-90
2022/03/16 01:38:04;;;;;;;30.45;19.65;;;;;;;3.87;65.61;101922.03;691624;28;1569;-89
2022/03/16 01:38:25;;;;;;;29.77;19.05;;;;;;;3.92;65.65;101933.56;690367;28;1563;-90
2022/03/16 01:38:46;;;;;;;28.65;18.98;;;;;;;3.81;65.49;101909.53;690416;28;1193;-90
2022/03/16 01:39:06;;;;;;;29.25;19.00;;;;;;;3.90;65.70;101923.91;692906;28;1087;-90
2022/03/16 01:39:27;;;;;;;26.77;18.98;;;;;;;3.93;65.25;101932.78;690282;28;1252;-90
2022/03/16 01:39:48;;;;;;;29.70;19.20;;;;;;;3.89;65.79;101916.94;692530;28;1256;-90
2022/03/16 01:40:09;;;;;;;29.42;19.20;;;;;;;3.95;65.63;101925.16;692110;28;1294;-91